Time;durP1;ratioP1;P1;durP2;ratioP2;P2;SDS_P1;SDS_P2;PMS_P1;PMS_P2;Temp;Humidity;BMP_temperature;BMP_pressure;BME280_temperature;BME280_humidity;BME280_pressure;Samples;Min_cycle;Max_cycle;Signal;HPM_P1;HPM_P2
2022/10/12 00:01:32;;;;;;;4.18;1.33;;;;;;;6.84;68.23;101093.53;5054909;28;20036;-71
2022/10/12 00:03:58;;;;;;;1.83;1.40;;;;;;;6.92;67.65;101101.38;5061981;28;20035;-72
2022/10/12 00:06:24;;;;;;;2.92;1.55;;;;;;;7.04;68.43;101101.47;5082203;28;20461;-71
2022/10/12 00:08:52;;;;;;;1.80;1.25;;;;;;;7.11;67.92;101103.06;5060694;28;20084;-72
2022/10/12 00:11:26;;;;;;;3.35;1.35;;;;;;;7.22;67.45;101106.09;5063999;28;20411;-72
2022/10/12 00:13:52;;;;;;;;;;;;;;;7.38;67.48;101115.53;5054224;28;21120;-74
2022/10/12 00:16:19;;;;;;;2.17;1.10;;;;;;;7.50;67.13;101109.09;5081422;28;19954;-73
2022/10/12 00:18:59;;;;;;;3.28;1.50;;;;;;;7.78;66.91;101118.56;5079022;28;20033;-73
2022/10/12 00:21:26;;;;;;;3.45;1.70;;;;;;;7.91;66.17;101124.88;5045851;28;20075;-72
2022/10/12 00:24:30;;;;;;;;;;;;;;;;;;;;;
2022/10/12 00:27:04;;;;;;;15.70;5.22;;;;;;;8.00;67.31;101126.22;5043410;28;20092;-73
2022/10/12 00:29:41;;;;;;;12.48;3.78;;;;;;;8.03;67.74;101125.75;5046881;28;20024;-72
2022/10/12 00:32:33;;;;;;;10.32;3.33;;;;;;;8.10;68.71;101137.38;5041778;28;20033;-73
2022/10/12 00:35:07;;;;;;;9.13;2.90;;;;;;;8.16;67.32;101124.72;5070353;28;20480;-72
2022/10/12 00:37:43;;;;;;;4.82;2.10;;;;;;;8.31;67.85;101127.00;5056474;28;20032;-72
2022/10/12 00:40:17;;;;;;;4.18;1.77;;;;;;;8.44;67.39;101124.13;5073498;28;20055;-71
2022/10/12 00:43:03;;;;;;;4.90;1.95;;;;;;;8.60;66.62;101129.94;5073752;28;20029;-73
2022/10/12 00:45:39;;;;;;;3.28;1.60;;;;;;;8.70;67.07;101127.44;5046563;28;20032;-74
2022/10/12 00:48:10;;;;;;;3.30;1.20;;;;;;;8.80;66.42;101130.41;5058452;28;20040;-71
2022/10/12 00:50:42;;;;;;;2.08;1.25;;;;;;;8.87;65.99;101117.50;5072546;28;20012;-72
2022/10/12 00:53:16;;;;;;;2.00;1.17;;;;;;;9.00;65.82;101123.78;5048606;28;20039;-72
2022/10/12 00:55:54;;;;;;;2.17;1.20;;;;;;;9.05;65.94;101116.56;5070586;28;20111;-72
2022/10/12 00:58:21;;;;;;;3.05;1.50;;;;;;;9.12;65.93;101116.41;5046953;28;20060;-72
2022/10/12 01:00:47;;;;;;;2.13;1.02;;;;;;;9.15;65.90;101115.09;5078812;28;20418;-73
2022/10/12 01:03:16;;;;;;;2.85;1.20;;;;;;;9.18;65.82;101107.25;5081658;28;20116;-73
2022/10/12 01:05:41;;;;;;;1.52;1.10;;;;;;;9.18;65.97;101109.16;5072459;28;20039;-73
2022/10/12 01:08:09;;;;;;;3.63;1.27;;;;;;;9.17;66.00;101113.81;5077628;28;20032;-74
2022/10/12 01:10:35;;;;;;;1.98;1.30;;;;;;;9.15;65.66;101099.56;5058129;28;20559;-74
2022/10/12 01:13:01;;;;;;;2.72;1.30;;;;;;;9.16;65.71;101112.13;5075137;28;20029;-74
2022/10/12 01:15:33;;;;;;;1.60;1.30;;;;;;;9.15;66.26;101098.72;5061038;28;20043;-72
2022/10/12 01:18:38;;;;;;;2.33;1.20;;;;;;;9.18;65.17;101099.06;5074869;28;20043;-73
2022/10/12 01:21:36;;;;;;;3.28;1.45;;;;;;;9.18;64.97;101088.16;4989407;28;21002;-71
2022/10/12 01:24:12;;;;;;;2.80;1.60;;;;;;;9.16;65.08;101073.13;5065424;28;20154;-73
2022/10/12 01:26:54;;;;;;;3.30;2.00;;;;;;;9.23;65.14;101085.53;5078365;28;20025;-72
2022/10/12 01:29:55;;;;;;;5.50;1.70;;;;;;;9.17;64.95;101058.38;5081092;28;20499;-72
2022/10/12 01:32:28;;;;;;;6.63;2.03;;;;;;;9.22;65.18;101067.50;5043773;28;20017;-72
2022/10/12 01:35:23;;;;;;;3.92;2.00;;;;;;;9.28;64.91;101078.53;5065655;28;20025;-72
2022/10/12 01:38:11;;;;;;;8.30;2.10;;;;;;;9.31;65.47;101069.88;5070751;28;20394;-73
2022/10/12 01:40:48;;;;;;;4.55;1.73;;;;;;;9.29;64.81;101061.91;5056160;28;20021;-73
2022/10/12 01:43:17;;;;;;;3.92;1.65;;;;;;;9.38;65.03;101065.91;5074356;28;20017;-73
2022/10/12 01:45:43;;;;;;;2.83;1.60;;;;;;;9.37;64.66;101053.34;5062276;28;20024;-73
2022/10/12 01:48:08;;;;;;;3.15;1.40;;;;;;;9.34;64.88;101042.09;5073645;28;20041;-72
2022/10/12 01:50:49;;;;;;;4.20;1.75;;;;;;;9.35;64.68;101052.75;5074502;28;20115;-71
2022/10/12 01:53:27;;;;;;;2.95;1.60;;;;;;;9.35;65.17;101054.66;5053273;28;20033;-71
2022/10/12 01:56:12;;;;;;;4.05;1.83;;;;;;;9.29;64.92;101022.88;5067823;28;20027;-71
2022/10/12 01:58:52;;;;;;;;;;;;;;;9.16;65.65;101024.00;5075019;28;20325;-72
2022/10/12 02:01:44;;;;;;;8.35;3.25;;;;;;;8.93;65.61;100997.59;5084529;28;19943;-73
2022/10/12 02:04:14;;;;;;;6.18;2.60;;;;;;;8.77;66.07;101002.72;5091133;28;20062;-73
2022/10/12 02:06:50;;;;;;;7.35;2.85;;;;;;;8.58;66.48;101006.69;5075060;28;20052;-73
2022/10/12 02:09:18;;;;;;;7.30;3.30;;;;;;;8.43;66.71;101010.66;5087910;28;20017;-73
2022/10/12 02:11:49;;;;;;;6.82;3.00;;;;;;;8.25;66.89;100997.16;5058205;28;20050;-73
2022/10/12 02:14:19;;;;;;;5.55;2.92;;;;;;;8.15;66.71;100995.84;5060861;28;20025;-73
2022/10/12 02:16:58;;;;;;;6.13;2.65;;;;;;;8.07;67.25;100985.31;5080693;28;20386;-74
2022/10/12 02:19:31;;;;;;;5.80;2.50;;;;;;;8.02;67.80;100990.63;5057042;28;20029;-73
2022/10/12 02:22:00;;;;;;;5.10;2.23;;;;;;;7.99;67.95;100988.38;5050699;28;20024;-72
2022/10/12 02:24:29;;;;;;;5.00;2.60;;;;;;;7.93;67.62;100997.47;5060094;28;20039;-73
2022/10/12 02:26:56;;;;;;;3.92;1.88;;;;;;;7.92;67.68;100999.38;5068282;28;20035;-73
2022/10/12 02:29:36;;;;;;;3.85;1.90;;;;;;;7.90;68.20;100997.94;5065493;28;20044;-74
2022/10/12 02:32:22;;;;;;;2.65;1.50;;;;;;;7.93;67.66;100992.03;5071723;28;20070;-73
2022/10/12 02:35:09;;;;;;;4.78;2.13;;;;;;;7.95;68.19;100995.38;5059004;28;20120;-72
2022/10/12 02:38:08;;;;;;;3.58;1.85;;;;;;;7.99;67.28;100988.38;5063983;28;20039;-71
2022/10/12 02:40:39;;;;;;;1.92;1.08;;;;;;;8.04;68.41;100992.06;5025559;28;20066;-72
2022/10/12 02:43:10;;;;;;;1.63;1.10;;;;;;;8.06;67.96;100993.72;5074422;28;20042;-72
2022/10/12 02:45:39;;;;;;;1.85;1.25;;;;;;;8.08;67.47;100980.69;5077294;28;20081;-71
2022/10/12 02:48:07;;;;;;;2.83;1.15;;;;;;;8.08;67.58;100978.78;5082492;28;20017;-71
2022/10/12 02:50:33;;;;;;;3.00;1.17;;;;;;;8.07;67.77;100974.41;5064632;28;20028;-71
2022/10/12 02:52:59;;;;;;;9.55;2.78;;;;;;;8.06;67.71;100972.78;5081851;28;20021;-71
2022/10/12 02:55:24;;;;;;;7.25;3.05;;;;;;;8.07;67.96;100968.13;5061716;28;20067;-70
2022/10/12 02:57:50;;;;;;;11.52;3.25;;;;;;;8.05;68.37;100976.53;5074821;28;20052;-72
2022/10/12 03:00:21;;;;;;;7.00;2.60;;;;;;;8.00;68.27;100969.09;5079550;28;20032;-71
2022/10/12 03:02:49;;;;;;;6.40;2.60;;;;;;;8.00;68.79;100966.38;5077287;28;20035;-71
2022/10/12 03:05:15;;;;;;;4.75;2.53;;;;;;;8.02;67.94;100971.56;5042581;28;20016;-73
2022/10/12 03:07:40;;;;;;;8.07;3.03;;;;;;;7.94;68.96;100975.44;5042363;28;20095;-72
2022/10/12 03:10:06;;;;;;;10.32;4.30;;;;;;;7.85;69.67;100985.03;5084606;28;20033;-71
2022/10/12 03:12:32;;;;;;;10.85;3.78;;;;;;;7.72;69.79;100977.91;5077950;28;20029;-73
2022/10/12 03:14:57;;;;;;;11.15;3.78;;;;;;;7.65;69.62;100969.00;5060579;28;20066;-73
2022/10/12 03:17:23;;;;;;;6.95;2.75;;;;;;;7.65;68.78;100969.00;5050796;28;20548;-71
2022/10/12 03:19:48;;;;;;;4.32;2.50;;;;;;;7.67;69.39;100972.34;5049409;28;20043;-72
2022/10/12 03:22:14;;;;;;;6.63;1.98;;;;;;;7.68;68.70;100971.25;5059619;28;20115;-72
2022/10/12 03:24:39;;;;;;;2.28;1.67;;;;;;;7.69;69.33;100970.22;5043800;28;20032;-71
2022/10/12 03:27:05;;;;;;;2.42;1.70;;;;;;;7.66;68.77;100957.06;5067457;28;20048;-72
2022/10/12 03:29:30;;;;;;;2.78;1.60;;;;;;;7.72;69.06;100956.13;5071562;28;20021;-72
2022/10/12 03:31:56;;;;;;;4.75;1.80;;;;;;;7.78;68.89;100965.25;5079010;28;20020;-71
2022/10/12 03:34:21;;;;;;;2.30;1.52;;;;;;;7.83;69.84;100963.50;5078726;28;20495;-71
2022/10/12 03:36:47;;;;;;;3.35;1.73;;;;;;;7.87;69.74;100955.69;5079352;28;20071;-71
2022/10/12 03:39:12;;;;;;;3.42;1.70;;;;;;;7.78;69.39;100928.00;5060433;28;20032;-72
2022/10/12 03:41:37;;;;;;;4.47;1.80;;;;;;;7.92;69.44;100939.47;5072470;28;20045;-72
2022/10/12 03:44:03;;;;;;;5.47;2.25;;;;;;;7.96;69.43;100943.38;5060799;28;20033;-70
2022/10/12 03:46:28;;;;;;;4.10;1.70;;;;;;;8.01;69.52;100942.66;5064005;28;20029;-72
2022/10/12 03:48:54;;;;;;;2.67;1.75;;;;;;;8.03;69.92;100935.94;5065049;28;20064;-71
2022/10/12 03:51:19;;;;;;;4.10;1.90;;;;;;;8.06;69.86;100929.19;5016774;28;20062;-72
2022/10/12 03:53:45;;;;;;;2.30;1.60;;;;;;;8.10;69.48;100938.50;5064846;28;20465;-71
2022/10/12 03:56:10;;;;;;;3.05;1.83;;;;;;;8.12;70.31;100927.38;5058616;28;20468;-73
2022/10/12 03:58:36;;;;;;;4.82;1.98;;;;;;;8.12;69.96;100928.22;5056548;28;20048;-74
2022/10/12 04:01:02;;;;;;;5.53;1.55;;;;;;;8.16;69.53;100928.56;5078171;28;20032;-72
2022/10/12 04:03:27;;;;;;;5.47;2.13;;;;;;;8.16;69.67;100928.56;5080509;28;20033;-73
2022/10/12 04:05:57;;;;;;;10.43;3.33;;;;;;;8.17;70.63;100931.06;5051443;28;20032;-71
2022/10/12 04:08:25;;;;;;;12.10;4.25;;;;;;;8.16;70.91;100940.31;5061800;28;20042;-72
2022/10/12 04:10:51;;;;;;;14.05;4.65;;;;;;;8.10;71.07;100943.97;5036753;28;20032;-71
2022/10/12 04:13:18;;;;;;;13.65;3.92;;;;;;;8.07;71.44;100940.91;5061855;28;20016;-72
2022/10/12 04:15:43;;;;;;;10.77;3.80;;;;;;;8.02;71.95;100944.34;5042194;28;20086;-72
2022/10/12 04:18:09;;;;;;;10.82;3.88;;;;;;;8.00;71.99;100941.00;5062007;28;20033;-73
2022/10/12 04:20:34;;;;;;;4.93;2.40;;;;;;;8.06;71.64;100934.63;5051933;28;20033;-72
2022/10/12 04:23:00;;;;;;;5.47;2.42;;;;;;;8.09;71.55;100923.25;5076579;28;20084;-73
2022/10/12 04:25:25;;;;;;;5.43;2.28;;;;;;;8.13;71.01;100932.63;5042399;28;20060;-73
2022/10/12 04:27:51;;;;;;;3.60;1.98;;;;;;;8.16;71.29;100932.16;5062468;28;20043;-71
2022/10/12 04:30:17;;;;;;;5.47;2.53;;;;;;;8.19;71.32;100926.22;5087369;28;20372;-72
2022/10/12 04:32:42;;;;;;;4.85;2.40;;;;;;;8.20;71.18;100922.41;5082279;28;20055;-73
2022/10/12 04:35:08;;;;;;;3.67;2.28;;;;;;;8.20;71.23;100907.97;5060693;28;20486;-71
2022/10/12 04:37:36;;;;;;;6.15;2.72;;;;;;;8.19;71.97;100912.59;5091636;28;20070;-72
2022/10/12 04:40:07;;;;;;;5.15;2.40;;;;;;;8.23;71.12;100923.00;5091318;28;20033;-72
2022/10/12 04:42:33;;;;;;;4.72;1.90;;;;;;;8.26;72.26;100928.81;5060639;28;20059;-72
2022/10/12 04:44:58;;;;;;;9.13;2.90;;;;;;;8.18;72.66;100915.56;5063751;28;20032;-73
2022/10/12 04:47:24;;;;;;;4.75;2.50;;;;;;;8.11;72.72;100912.94;5074095;28;20025;-72
2022/10/12 04:49:49;;;;;;;6.90;2.40;;;;;;;8.06;72.70;100912.00;5065844;28;20052;-71
2022/10/12 04:52:14;;;;;;;6.22;1.85;;;;;;;8.16;73.23;100923.13;5060852;28;20071;-72
2022/10/12 04:54:40;;;;;;;5.15;2.38;;;;;;;8.14;72.42;100926.09;5061906;28;20117;-72
2022/10/12 04:57:08;;;;;;;5.32;2.13;;;;;;;8.12;72.50;100922.78;5044830;28;20029;-71
2022/10/12 04:59:33;;;;;;;4.97;2.38;;;;;;;8.12;72.64;100921.94;5052057;28;20032;-70
2022/10/12 05:01:59;;;;;;;5.78;2.40;;;;;;;8.10;73.15;100919.44;5063524;28;20039;-71
2022/10/12 05:04:24;;;;;;;6.18;2.22;;;;;;;8.06;72.71;100912.00;5068357;28;20350;-73
2022/10/12 05:06:50;;;;;;;4.72;1.73;;;;;;;8.09;72.98;100917.81;5048571;28;20047;-73
2022/10/12 05:09:15;;;;;;;4.90;2.13;;;;;;;8.12;72.66;100917.34;5059698;28;20604;-72
2022/10/12 05:11:40;;;;;;;1.45;1.10;;;;;;;8.10;73.04;100911.28;5063741;28;20490;-73
2022/10/12 05:14:07;;;;;;;4.03;1.30;;;;;;;8.09;73.12;100906.91;5044147;28;20041;-72
2022/10/12 05:16:33;;;;;;;2.35;1.02;;;;;;;8.12;72.56;100908.31;5065035;28;20028;-73
2022/10/12 05:18:59;;;;;;;1.33;0.90;;;;;;;8.14;72.42;100898.84;5058873;28;20054;-72
2022/10/12 05:21:24;;;;;;;1.98;0.93;;;;;;;8.15;73.25;100911.41;5046863;28;20040;-73
2022/10/12 05:23:50;;;;;;;2.78;1.17;;;;;;;8.24;72.96;100908.34;5071838;28;20032;-72
2022/10/12 05:26:16;;;;;;;2.45;0.90;;;;;;;8.27;72.81;100907.84;5058272;28;20032;-73
2022/10/12 05:28:42;;;;;;;3.55;1.30;;;;;;;8.32;72.92;100916.13;5070885;28;20390;-72
2022/10/12 05:31:08;;;;;;;2.58;1.20;;;;;;;8.33;72.14;100906.88;5080687;28;20024;-73
2022/10/12 05:33:33;;;;;;;2.72;1.17;;;;;;;8.34;71.98;100909.38;5064527;28;20033;-74
2022/10/12 05:35:58;;;;;;;7.07;2.28;;;;;;;8.35;72.58;100915.63;5062390;28;20073;-74
2022/10/12 05:38:24;;;;;;;10.73;2.58;;;;;;;8.37;72.94;100921.69;5077196;28;20067;-73
2022/10/12 05:40:50;;;;;;;8.00;2.63;;;;;;;8.37;72.67;100903.44;5027445;28;20025;-74
2022/10/12 05:43:17;;;;;;;4.22;1.98;;;;;;;8.33;72.02;100890.53;5071375;28;20036;-74
2022/10/12 05:45:43;;;;;;;2.25;1.52;;;;;;;8.31;72.58;100884.47;5079508;28;20047;-72
2022/10/12 05:48:08;;;;;;;3.67;1.63;;;;;;;8.44;72.48;100900.63;5046931;28;20062;-73
2022/10/12 05:50:34;;;;;;;2.17;1.65;;;;;;;8.43;72.35;100901.66;5047100;28;20047;-72
2022/10/12 05:52:59;;;;;;;2.85;1.58;;;;;;;8.44;72.13;100899.75;5061636;28;20431;-72
2022/10/12 05:55:24;;;;;;;1.60;1.17;;;;;;;8.50;72.98;100902.38;5061188;28;20025;-73
2022/10/12 05:57:50;;;;;;;1.40;1.08;;;;;;;8.52;72.39;100900.22;5026312;28;20092;-74
2022/10/12 06:00:16;;;;;;;1.55;0.90;;;;;;;8.54;72.10;100891.81;5043638;28;20125;-72
2022/10/12 06:02:41;;;;;;;1.65;0.82;;;;;;;8.51;72.19;100904.06;5029311;28;20025;-73
2022/10/12 06:05:07;;;;;;;3.05;1.20;;;;;;;8.52;72.24;100894.78;5011275;28;20026;-73
2022/10/12 06:07:35;;;;;;;2.72;1.33;;;;;;;8.53;72.02;100896.44;5034343;28;20633;-72
2022/10/12 06:10:01;;;;;;;2.45;1.40;;;;;;;8.53;72.21;100893.72;5023840;28;20017;-73
2022/10/12 06:12:58;;;;;;;2.60;1.30;;;;;;;8.51;71.75;100887.69;5005443;28;20106;-74
2022/10/12 06:15:24;;;;;;;2.85;1.00;;;;;;;8.41;72.71;100871.09;5022628;28;20033;-74
2022/10/12 06:17:50;;;;;;;2.83;1.30;;;;;;;8.50;71.74;100885.22;5031600;28;20143;-72
2022/10/12 06:20:16;;;;;;;5.03;1.70;;;;;;;8.54;72.31;100881.75;5051538;28;20080;-73
2022/10/12 06:22:41;;;;;;;2.75;1.20;;;;;;;8.50;71.81;100875.13;5020171;28;20045;-72
2022/10/12 06:25:07;;;;;;;3.25;1.30;;;;;;;8.55;72.24;100875.22;5039683;28;20041;-74
2022/10/12 06:27:35;;;;;;;2.78;1.42;;;;;;;8.62;72.16;100905.06;5033233;28;20017;-73
2022/10/12 06:30:01;;;;;;;5.05;1.85;;;;;;;8.66;71.85;100905.41;5039863;28;20029;-74
2022/10/12 06:32:26;;;;;;;8.13;2.25;;;;;;;8.66;72.41;100916.31;5039770;28;20081;-73
2022/10/12 06:34:51;;;;;;;4.43;1.80;;;;;;;8.64;72.01;100896.66;5032724;28;20381;-72
2022/10/12 06:37:17;;;;;;;2.90;2.00;;;;;;;8.64;71.70;100892.03;5039414;28;20059;-74
2022/10/12 06:39:42;;;;;;;3.80;1.67;;;;;;;8.62;72.35;100894.19;5050107;28;20063;-74
2022/10/12 06:42:08;;;;;;;3.08;1.48;;;;;;;8.64;71.83;100891.19;5012155;28;21242;-72
2022/10/12 06:44:34;;;;;;;2.20;1.33;;;;;;;8.68;71.42;100903.28;5040936;28;20025;-75
2022/10/12 06:47:00;;;;;;;2.47;0.80;;;;;;;8.71;72.31;100897.34;5035594;28;20018;-73
2022/10/12 06:49:25;;;;;;;2.08;0.95;;;;;;;8.80;71.79;100906.78;5028463;28;20467;-71
2022/10/12 06:51:51;;;;;;;1.75;1.02;;;;;;;8.87;71.79;100896.56;5036599;28;20053;-72
2022/10/12 06:54:16;;;;;;;1.27;0.90;;;;;;;8.96;71.44;100888.81;5024509;28;20017;-69
2022/10/12 06:56:43;;;;;;;1.83;0.95;;;;;;;9.17;70.71;100891.94;5026737;28;20558;-76
2022/10/12 06:59:11;;;;;;;2.15;0.88;;;;;;;9.38;71.61;100906.78;5026301;28;20041;-76
2022/10/12 07:01:37;;;;;;;3.75;1.33;;;;;;;9.51;70.98;100898.28;5034257;28;20479;-73
2022/10/12 07:04:06;;;;;;;2.70;1.00;;;;;;;9.71;70.63;100902.41;5022846;28;20033;-71
2022/10/12 07:06:32;;;;;;;2.10;1.23;;;;;;;9.91;69.63;100910.91;5030812;28;20047;-72
2022/10/12 07:08:57;;;;;;;3.55;1.50;;;;;;;10.05;69.50;100911.41;5029787;28;20116;-71
2022/10/12 07:11:22;;;;;;;2.45;1.42;;;;;;;10.13;69.40;100907.41;5016771;28;20037;-71
2022/10/12 07:13:51;;;;;;;2.83;1.10;;;;;;;10.18;69.16;100899.31;5042133;28;20029;-71
2022/10/12 07:16:17;;;;;;;2.67;1.17;;;;;;;10.35;69.08;100907.47;5046938;28;20041;-71
2022/10/12 07:18:43;;;;;;;4.80;1.45;;;;;;;10.54;68.55;100908.03;5030684;28;20042;-72
2022/10/12 07:21:08;;;;;;;2.55;1.45;;;;;;;10.69;68.55;100914.75;5048415;28;20362;-71
2022/10/12 07:23:34;;;;;;;2.70;1.42;;;;;;;10.76;67.92;100904.44;5029502;28;20369;-71
2022/10/12 07:25:59;;;;;;;2.42;1.15;;;;;;;10.80;67.83;100906.41;5040298;28;20033;-70
2022/10/12 07:28:25;;;;;;;4.18;1.55;;;;;;;10.82;67.32;100903.44;5028329;28;20045;-71
2022/10/12 07:30:51;;;;;;;2.78;1.42;;;;;;;10.70;67.59;100892.59;5038130;28;20028;-71
2022/10/12 07:33:16;;;;;;;4.05;1.85;;;;;;;10.58;67.91;100887.28;5046515;28;20032;-71
2022/10/12 07:35:42;;;;;;;8.65;2.00;;;;;;;10.36;68.30;100880.97;5026712;28;20030;-71
2022/10/12 07:38:07;;;;;;;12.10;2.30;;;;;;;10.18;69.02;100882.91;5017575;28;20056;-71
2022/10/12 07:40:33;;;;;;;7.72;2.42;;;;;;;9.93;69.17;100865.06;5032802;28;20033;-71
2022/10/12 07:42:59;;;;;;;3.40;1.80;;;;;;;9.89;69.70;100869.38;5031341;28;20038;-71
2022/10/12 07:45:27;;;;;;;5.70;1.85;;;;;;;9.91;69.73;100859.00;5033201;28;20050;-70
2022/10/12 07:47:54;;;;;;;7.72;2.33;;;;;;;10.39;69.79;100866.81;5028324;28;20033;-71
2022/10/12 07:50:20;;;;;;;5.45;1.85;;;;;;;11.58;68.52;100863.34;5028862;28;20060;-70
2022/10/12 07:52:45;;;;;;;3.00;1.60;;;;;;;14.06;61.31;100869.31;5034944;28;20079;-70
2022/10/12 07:55:11;;;;;;;1.98;1.13;;;;;;;16.06;55.90;100874.69;5045246;28;20045;-71
2022/10/12 07:57:54;;;;;;;1.77;1.00;;;;;;;18.53;50.25;100882.00;5048321;28;20457;-69
2022/10/12 08:00:21;;;;;;;1.95;1.48;;;;;;;20.37;45.27;100881.47;5084383;28;20506;-69
2022/10/12 08:02:46;;;;;;;1.83;0.98;;;;;;;21.91;42.26;100875.00;5075054;28;20035;-70
2022/10/12 08:05:11;;;;;;;2.22;0.93;;;;;;;23.17;39.91;100886.50;5060445;28;20028;-72
2022/10/12 08:07:39;;;;;;;6.88;1.77;;;;;;;24.19;38.24;100891.72;5055600;28;20028;-70
2022/10/12 08:10:05;;;;;;;10.20;1.67;;;;;;;25.06;36.12;100888.91;5044347;28;20032;-71
2022/10/12 08:12:30;;;;;;;7.68;2.08;;;;;;;24.98;35.02;100881.47;5055558;28;20032;-71
2022/10/12 08:14:56;;;;;;;6.50;1.92;;;;;;;25.01;35.08;100883.53;5050441;28;20032;-70
2022/10/12 08:17:21;;;;;;;4.10;1.80;;;;;;;25.80;34.11;100871.81;5043646;28;20028;-70
2022/10/12 08:19:47;;;;;;;6.28;2.17;;;;;;;26.95;32.49;100874.66;5050610;28;20098;-70
2022/10/12 08:22:12;;;;;;;5.18;2.20;;;;;;;26.74;31.74;100862.97;5063246;28;20024;-70
2022/10/12 08:24:38;;;;;;;4.30;1.98;;;;;;;26.91;32.28;100868.16;5057960;28;20020;-70
2022/10/12 08:27:03;;;;;;;8.52;2.58;;;;;;;26.54;31.66;100867.69;5059784;28;20478;-70
2022/10/12 08:29:29;;;;;;;10.70;3.00;;;;;;;25.89;31.70;100872.47;5077291;28;20020;-71
2022/10/12 08:31:54;;;;;;;10.20;3.80;;;;;;;25.00;33.21;100873.50;5051887;28;20527;-72
2022/10/12 08:34:20;;;;;;;8.05;3.17;;;;;;;25.57;33.14;100871.59;5080111;28;20036;-71
2022/10/12 08:36:45;;;;;;;6.10;3.00;;;;;;;26.41;32.05;100875.38;5041505;28;20413;-70
2022/10/12 08:39:17;;;;;;;9.60;3.00;;;;;;;27.13;31.09;100874.22;5081278;28;20088;-71
2022/10/12 08:41:50;;;;;;;8.07;2.28;;;;;;;28.31;29.79;100875.66;5063265;28;20024;-71
2022/10/12 08:44:48;;;;;;;6.97;2.70;;;;;;;29.36;28.39;100882.81;5071882;28;20024;-71
2022/10/12 08:47:21;;;;;;;4.32;2.22;;;;;;;30.08;27.77;100873.13;5073223;28;20016;-74
2022/10/12 08:49:49;;;;;;;9.50;2.60;;;;;;;29.80;27.33;100872.84;5068395;28;20032;-71
2022/10/12 08:52:46;;;;;;;4.80;1.88;;;;;;;29.67;28.06;100887.22;5082637;28;20716;-71
2022/10/12 08:55:44;;;;;;;9.55;2.97;;;;;;;30.14;27.09;100895.31;5085323;28;20053;-70
2022/10/12 08:58:20;;;;;;;6.10;2.53;;;;;;;31.18;25.89;100884.78;5061799;28;20068;-70
2022/10/12 09:00:51;;;;;;;6.47;2.95;;;;;;;31.93;24.74;100897.53;5068488;28;20040;-71
2022/10/12 09:03:43;;;;;;;9.00;3.50;;;;;;;33.21;23.35;100921.31;5083056;28;20101;-71
2022/10/12 09:06:29;;;;;;;6.15;3.30;;;;;;;32.97;22.26;100913.69;5028908;28;20110;-70
2022/10/12 09:09:00;;;;;;;9.43;3.70;;;;;;;33.27;22.58;100921.69;5082965;28;20036;-73
2022/10/12 09:11:50;;;;;;;13.60;5.40;;;;;;;33.41;21.48;100926.47;5075101;28;20039;-75
2022/10/12 09:14:40;;;;;;;;;;;;;;;;;;;;;
2022/10/12 09:20:48;;;;;;;7.57;3.72;;;;;;;34.02;21.16;100925.34;5063929;28;20092;-71
2022/10/12 09:23:26;;;;;;;;;;;;;;;35.57;20.68;100936.03;5055215;28;20016;-71
2022/10/12 09:26:03;;;;;;;5.30;2.40;;;;;;;36.44;20.08;100912.75;5061100;28;20274;-70
2022/10/12 09:28:36;;;;;;;6.50;2.10;;;;;;;38.15;19.45;100925.13;5047596;28;20060;-70
2022/10/12 09:31:16;;;;;;;4.07;1.80;;;;;;;38.14;19.13;100912.91;5057199;28;20021;-70
2022/10/12 09:33:57;;;;;;;6.03;2.22;;;;;;;36.77;19.86;100917.88;5063460;28;20025;-71
2022/10/12 09:36:26;;;;;;;6.93;1.95;;;;;;;35.10;20.92;100908.16;5064580;28;20037;-71
2022/10/12 09:38:56;;;;;;;9.68;2.40;;;;;;;33.27;22.09;100915.22;5068904;28;20024;-69
2022/10/12 09:41:43;;;;;;;7.53;2.53;;;;;;;34.07;21.30;100924.94;5040756;28;20099;-69
2022/10/12 09:44:38;;;;;;;6.85;2.80;;;;;;;32.62;22.38;100921.81;5054203;28;20059;-70
2022/10/12 09:47:26;;;;;;;6.60;2.38;;;;;;;30.05;25.49;100915.38;5043684;28;20041;-70
2022/10/12 09:50:36;;;;;;;8.90;2.53;;;;;;;27.22;28.35;100904.88;5075504;28;20020;-70
2022/10/12 09:53:10;;;;;;;11.00;2.42;;;;;;;25.74;31.52;100899.28;5065920;28;20043;-71
2022/10/12 09:55:36;;;;;;;8.27;2.42;;;;;;;25.39;32.57;100885.09;5075157;28;20028;-72
2022/10/12 09:58:04;;;;;;;10.05;2.80;;;;;;;25.55;32.44;100873.94;5060639;28;20050;-71
2022/10/12 10:00:34;;;;;;;13.63;4.00;;;;;;;25.11;33.48;100877.47;5075550;28;20056;-69
2022/10/12 10:03:00;;;;;;;12.90;3.83;;;;;;;24.07;35.33;100872.16;5032948;28;20058;-70
2022/10/12 10:05:29;;;;;;;9.95;3.58;;;;;;;23.43;35.63;100860.34;5064248;28;20067;-71
2022/10/12 10:08:19;;;;;;;13.65;4.20;;;;;;;23.08;36.75;100855.03;5083012;28;20016;-70
2022/10/12 10:10:52;;;;;;;18.60;4.18;;;;;;;23.73;37.23;100843.47;5060217;28;20029;-70
2022/10/12 10:13:22;;;;;;;13.23;3.92;;;;;;;28.50;30.92;100837.38;5067556;28;20048;-70
2022/10/12 10:16:03;;;;;;;7.88;2.33;;;;;;;31.74;26.02;100823.19;5055483;28;20040;-71
2022/10/12 10:18:47;;;;;;;26.85;4.97;;;;;;;32.69;23.23;100824.78;5069037;28;20057;-71
2022/10/12 10:21:22;;;;;;;36.63;7.07;;;;;;;29.24;26.80;100819.94;5065108;28;20033;-72
2022/10/12 10:24:02;;;;;;;31.25;6.53;;;;;;;29.83;27.02;100832.63;5084331;28;20024;-71
2022/10/12 10:26:49;;;;;;;7.22;1.90;;;;;;;32.08;23.12;100836.97;5045323;28;20043;-69
2022/10/12 10:29:21;;;;;;;8.95;1.85;;;;;;;34.94;21.00;100849.09;5071796;28;20030;-71
2022/10/12 10:31:47;;;;;;;6.45;1.58;;;;;;;36.18;19.33;100858.28;5061852;28;20036;-71
2022/10/12 10:34:15;;;;;;;3.33;1.10;;;;;;;35.52;19.81;100853.25;5036387;28;20501;-72
2022/10/12 10:36:47;;;;;;;7.55;1.50;;;;;;;32.01;22.68;100842.59;5089347;28;20040;-71
2022/10/12 10:39:19;;;;;;;9.85;1.80;;;;;;;29.32;26.04;100837.75;5067963;28;20024;-73
2022/10/12 10:41:45;;;;;;;3.33;1.13;;;;;;;28.74;27.26;100847.44;5060576;28;20055;-70
2022/10/12 10:44:32;;;;;;;4.53;1.75;;;;;;;27.74;28.77;100852.19;5049839;28;20039;-71
2022/10/12 10:47:11;;;;;;;5.68;1.65;;;;;;;28.63;27.94;100858.50;5062090;28;20024;-71
2022/10/12 10:49:54;;;;;;;6.28;2.00;;;;;;;29.99;26.07;100844.44;5062588;28;20036;-71
2022/10/12 10:52:26;;;;;;;6.55;2.10;;;;;;;27.92;28.38;100847.69;5066743;28;20046;-71
2022/10/12 10:55:15;;;;;;;4.35;1.80;;;;;;;25.90;30.69;100840.47;5068474;28;20020;-72
2022/10/12 10:58:02;;;;;;;20.15;1.90;;;;;;;26.40;31.87;100838.13;5080508;28;20060;-73
2022/10/12 11:00:31;;;;;;;5.95;1.27;;;;;;;29.13;27.42;100829.41;5055952;28;20044;-73
2022/10/12 11:02:58;;;;;;;4.97;1.67;;;;;;;30.33;25.66;100826.56;5066533;28;20031;-72
2022/10/12 11:05:28;;;;;;;7.13;1.50;;;;;;;29.72;26.18;100827.69;5052155;28;20843;-71
2022/10/12 11:08:01;;;;;;;9.43;1.42;;;;;;;27.95;27.72;100835.72;5087141;28;20029;-70
2022/10/12 11:10:44;;;;;;;10.10;1.40;;;;;;;26.88;30.22;100823.97;5066553;28;20102;-70
2022/10/12 11:13:34;;;;;;;3.65;1.20;;;;;;;28.84;27.60;100829.88;5057827;28;20475;-70
2022/10/12 11:16:32;;;;;;;3.75;0.90;;;;;;;31.74;24.34;100834.50;5054560;28;20036;-71
2022/10/12 11:19:20;;;;;;;5.72;1.10;;;;;;;34.53;20.94;100824.38;5062639;28;20020;-72
2022/10/12 11:22:15;;;;;;;3.20;0.93;;;;;;;33.73;21.18;100823.44;5040723;28;20062;-70
2022/10/12 11:24:46;;;;;;;7.07;1.50;;;;;;;30.52;24.41;100823.53;5045160;28;20075;-70
2022/10/12 11:27:19;;;;;;;4.63;1.20;;;;;;;31.11;24.76;100819.81;5080305;28;20013;-72
2022/10/12 11:29:44;;;;;;;5.85;1.58;;;;;;;29.97;25.60;100815.84;5060500;28;20036;-70
2022/10/12 11:32:27;;;;;;;7.35;1.35;;;;;;;28.37;27.92;100815.13;5062031;28;20029;-71
2022/10/12 11:35:02;;;;;;;3.92;1.15;;;;;;;31.56;25.44;100820.34;5075158;28;20523;-72
2022/10/12 11:37:37;;;;;;;5.90;1.20;;;;;;;33.28;22.11;100814.81;5066094;28;20154;-71
2022/10/12 11:40:08;;;;;;;2.83;1.00;;;;;;;33.15;22.54;100818.13;5088795;28;20056;-71
2022/10/12 11:42:40;;;;;;;3.00;0.98;;;;;;;33.33;21.98;100825.75;5073918;28;20120;-72
2022/10/12 11:45:18;;;;;;;4.82;1.27;;;;;;;31.81;23.77;100809.06;5076651;28;20124;-71
2022/10/12 11:47:47;;;;;;;7.88;1.80;;;;;;;30.62;25.20;100805.03;5055719;28;20044;-72
2022/10/12 11:50:31;;;;;;;8.27;1.40;;;;;;;30.43;25.91;100808.94;5060300;28;20044;-71
2022/10/12 11:53:00;;;;;;;2.85;0.98;;;;;;;31.18;24.80;100794.41;5076353;28;20030;-72
2022/10/12 11:55:39;;;;;;;3.40;1.38;;;;;;;30.99;25.48;100787.06;5075641;28;20043;-70